createdAt,value
2023-07-24T00:01:13.314Z,100803.34
2023-07-24T00:03:43.268Z,100801.65
2023-07-24T00:06:13.200Z,100799.67
2023-07-24T00:08:42.784Z,100800.02
2023-07-24T00:11:12.661Z,100800.30
2023-07-24T00:13:43.065Z,100803.81
2023-07-24T00:16:14.427Z,100802.70
2023-07-24T00:18:44.195Z,100802.52
2023-07-24T00:21:14.876Z,100807.13
2023-07-24T00:23:44.436Z,100809.02
2023-07-24T00:26:14.383Z,100809.29
2023-07-24T00:28:44.108Z,100808.13
2023-07-24T00:31:15.828Z,100806.60
2023-07-24T00:33:45.390Z,100809.80
2023-07-24T00:36:15.187Z,100805.38
2023-07-24T00:38:44.734Z,100803.85
2023-07-24T00:41:14.674Z,100803.84
2023-07-24T00:43:44.786Z,100808.36
2023-07-24T00:46:16.490Z,100807.19
2023-07-24T00:48:46.014Z,100801.60
2023-07-24T00:51:15.678Z,100799.70
2023-07-24T00:53:48.216Z,100796.38
2023-07-24T00:56:17.335Z,100793.16
2023-07-24T00:58:46.913Z,100784.07
2023-07-24T01:01:17.711Z,100779.30
2023-07-24T01:03:47.073Z,100773.11
2023-07-24T01:06:17.030Z,100774.85
2023-07-24T01:08:46.454Z,100770.40
2023-07-24T01:11:20.199Z,100767.42
2023-07-24T01:13:57.116Z,100769.34
2023-07-24T01:16:32.915Z,100770.15
2023-07-24T01:19:04.890Z,100764.31
2023-07-24T01:21:46.041Z,100762.91
2023-07-24T01:24:31.487Z,100766.40
2023-07-24T01:27:00.644Z,100769.15
2023-07-24T01:29:29.605Z,100772.27
2023-07-24T01:31:58.653Z,100774.99
2023-07-24T01:34:27.682Z,100773.30
2023-07-24T01:36:57.790Z,100770.23
2023-07-24T01:39:27.093Z,100773.45
2023-07-24T01:41:56.774Z,100776.15
2023-07-24T01:44:26.301Z,100779.01
2023-07-24T01:46:55.211Z,100785.82
2023-07-24T01:49:24.457Z,100789.38
2023-07-24T01:51:53.142Z,100793.77
2023-07-24T01:54:22.196Z,100795.95
2023-07-24T01:56:51.511Z,100797.82
2023-07-24T01:59:20.365Z,100799.52
2023-07-24T02:01:49.705Z,100807.05
2023-07-24T02:04:22.552Z,100808.00
2023-07-24T02:06:51.586Z,100808.98
2023-07-24T02:09:21.745Z,100809.04
2023-07-24T02:11:53.725Z,100810.41
2023-07-24T02:14:22.823Z,100813.50
2023-07-24T02:16:51.817Z,100810.65
2023-07-24T02:19:21.727Z,100809.30
2023-07-24T02:21:51.714Z,100809.30
2023-07-24T02:24:23.376Z,100806.41
2023-07-24T02:26:52.735Z,100802.98
2023-07-24T02:29:23.341Z,100802.03
2023-07-24T02:31:54.366Z,100803.49
2023-07-24T02:34:26.626Z,100803.94
2023-07-24T02:36:56.262Z,100808.39
2023-07-24T02:39:25.335Z,100819.50
2023-07-24T02:41:54.247Z,100820.62
2023-07-24T02:44:23.553Z,100821.18
2023-07-24T02:46:56.075Z,100820.42
2023-07-24T02:49:25.184Z,100821.09
2023-07-24T02:51:55.632Z,100816.80
2023-07-24T02:54:29.192Z,100817.36
2023-07-24T02:57:00.303Z,100817.04
2023-07-24T02:59:32.721Z,100809.36
2023-07-24T03:02:01.722Z,100806.29
2023-07-24T03:04:31.723Z,100804.73
2023-07-24T03:07:00.719Z,100807.34
2023-07-24T03:09:29.919Z,100802.45
2023-07-24T03:11:58.924Z,100797.81
2023-07-24T03:14:28.018Z,100799.69
2023-07-24T03:16:57.174Z,100795.38
2023-07-24T03:19:26.200Z,100791.10
2023-07-24T03:21:55.713Z,100790.48
2023-07-24T03:24:28.795Z,100784.49
2023-07-24T03:26:59.158Z,100780.73
2023-07-24T03:29:29.315Z,100781.17
2023-07-24T04:04:29.843Z,100772.09
2023-07-24T04:07:04.350Z,100772.30
2023-07-24T04:09:33.616Z,100772.00
2023-07-24T04:12:06.877Z,100775.09
2023-07-24T04:14:36.302Z,100775.69
2023-07-24T04:17:10.281Z,100779.42
2023-07-24T04:19:42.491Z,100783.40
2023-07-24T04:22:11.742Z,100781.94
2023-07-24T04:24:44.847Z,100784.02
2023-07-24T04:27:14.370Z,100782.58
2023-07-24T04:29:46.454Z,100786.82
2023-07-24T04:32:18.215Z,100786.52
2023-07-24T04:34:49.892Z,100788.86
2023-07-24T04:37:21.370Z,100791.64
2023-07-24T04:39:50.412Z,100790.90
2023-07-24T04:42:19.489Z,100790.67
2023-07-24T04:44:50.548Z,100789.28
2023-07-24T04:47:28.404Z,100788.40
2023-07-24T04:49:58.693Z,100787.02
2023-07-24T04:52:36.022Z,100784.80
2023-07-24T04:55:42.879Z,100785.55
2023-07-24T04:58:13.707Z,100786.00
2023-07-24T05:01:14.331Z,100782.18
2023-07-24T05:03:48.389Z,100779.75
2023-07-24T05:06:18.000Z,100779.70
2023-07-24T05:08:49.748Z,100780.36
2023-07-24T05:11:21.739Z,100776.20
2023-07-24T05:14:00.820Z,100771.52
2023-07-24T05:17:05.602Z,100767.81
2023-07-24T05:19:35.239Z,100771.06
2023-07-24T05:22:08.906Z,100771.16
2023-07-24T05:24:41.771Z,100772.09
2023-07-24T05:27:11.992Z,100775.71
2023-07-24T05:29:41.292Z,100775.45
2023-07-24T05:32:10.459Z,100778.30
2023-07-24T05:34:42.891Z,100778.65
2023-07-24T05:37:13.523Z,100777.83
2023-07-24T05:39:42.547Z,100778.79
2023-07-24T05:42:19.143Z,100780.56
2023-07-24T05:44:48.634Z,100773.19
2023-07-24T05:47:20.210Z,100769.23
2023-07-24T05:49:50.935Z,100766.25
2023-07-24T05:52:20.236Z,100762.14
2023-07-24T05:54:51.903Z,100757.06
2023-07-24T05:57:20.849Z,100756.33
2023-07-24T05:59:52.661Z,100755.23
2023-07-24T06:02:26.154Z,100753.10
2023-07-24T06:05:10.293Z,100747.91
2023-07-24T06:08:18.654Z,100746.88
2023-07-24T06:10:50.577Z,100748.92
2023-07-24T06:17:39.667Z,100745.89
2023-07-24T06:21:21.855Z,100747.15
2023-07-24T06:23:57.028Z,100745.41
2023-07-24T06:26:27.053Z,100744.75
2023-07-24T06:39:27.183Z,100747.88
2023-07-24T06:53:58.280Z,100755.38
2023-07-24T06:56:43.332Z,100758.05
2023-07-24T07:00:13.889Z,100754.06
2023-07-24T07:03:44.859Z,100753.23
2023-07-24T07:07:44.517Z,100754.66
2023-07-24T07:11:03.104Z,100744.96
2023-07-24T07:14:34.993Z,100738.73
2023-07-24T07:22:18.416Z,100736.91
2023-07-24T07:32:46.925Z,100734.98
2023-07-24T07:35:52.435Z,100732.80
2023-07-24T07:38:53.484Z,100722.29
2023-07-24T07:42:17.592Z,100714.97
2023-07-24T07:45:16.977Z,100714.84
2023-07-24T07:47:48.780Z,100714.59
2023-07-24T07:50:21.058Z,100716.83
2023-07-24T08:05:17.125Z,100706.71
2023-07-24T08:15:30.154Z,100703.91
2023-07-24T08:26:25.543Z,100691.02
2023-07-24T08:29:17.307Z,100686.16
2023-07-24T08:33:05.252Z,100685.98
2023-07-24T08:35:46.388Z,100680.56
2023-07-24T08:39:11.701Z,100674.36
2023-07-24T08:42:11.583Z,100671.73
2023-07-24T08:45:04.030Z,100670.73
2023-07-24T08:48:19.182Z,100665.77
2023-07-24T08:52:01.869Z,100661.56
2023-07-24T08:57:55.564Z,100656.13
2023-07-24T09:05:12.471Z,100654.16
2023-07-24T09:08:11.249Z,100651.39
2023-07-24T09:11:17.772Z,100644.98
2023-07-24T09:14:41.431Z,100641.63
2023-07-24T09:21:43.601Z,100636.98
2023-07-24T09:25:20.269Z,100632.34
2023-07-24T09:27:49.933Z,100625.16
2023-07-24T09:31:15.209Z,100623.58
2023-07-24T09:33:51.418Z,100623.67
2023-07-24T10:02:47.594Z,100582.70
2023-07-24T10:05:53.424Z,100574.88
2023-07-24T10:08:26.873Z,100569.05
2023-07-24T10:11:12.392Z,100563.95
2023-07-24T10:18:13.004Z,100554.72
2023-07-24T10:25:14.868Z,100547.84
2023-07-24T10:28:06.364Z,100548.44
2023-07-24T10:53:54.491Z,100531.09
2023-07-24T11:01:31.816Z,100513.94
2023-07-24T11:13:09.378Z,100494.92
2023-07-24T11:24:00.718Z,100491.21
2023-07-24T11:31:02.996Z,100486.46
2023-07-24T11:33:57.701Z,100480.61
2023-07-24T11:37:33.832Z,100479.61
2023-07-24T11:40:48.398Z,100475.03
2023-07-24T11:54:39.256Z,100455.65
2023-07-24T11:57:45.273Z,100449.55
2023-07-24T12:01:01.141Z,100449.98
2023-07-24T12:04:19.360Z,100446.80
2023-07-24T12:10:43.114Z,100439.70
2023-07-24T12:17:18.310Z,100428.85
2023-07-24T12:23:29.312Z,100425.21
2023-07-24T12:26:44.859Z,100428.11
2023-07-24T12:30:12.633Z,100423.96
2023-07-24T12:36:50.607Z,100415.77
2023-07-24T12:39:53.105Z,100413.49
2023-07-24T12:42:58.959Z,100413.23
2023-07-24T12:46:15.076Z,100410.19
2023-07-24T12:49:21.352Z,100407.44
2023-07-24T12:52:35.672Z,100397.79
2023-07-24T12:58:21.083Z,100382.70
2023-07-24T13:01:19.762Z,100376.71
2023-07-24T13:04:13.220Z,100383.05
2023-07-24T13:07:36.987Z,100376.88
2023-07-24T13:10:42.656Z,100371.39
2023-07-24T13:16:50.547Z,100366.61
2023-07-24T13:20:10.025Z,100368.20
2023-07-24T13:23:28.086Z,100358.71
2023-07-24T13:26:13.628Z,100349.80
2023-07-24T13:29:22.058Z,100346.11
2023-07-24T13:32:31.649Z,100341.80
2023-07-24T13:35:37.894Z,100337.56
2023-07-24T13:38:56.282Z,100337.55
2023-07-24T13:41:47.596Z,100335.02
2023-07-24T13:52:56.096Z,100323.58
2023-07-24T13:56:15.861Z,100323.48
2023-07-24T13:59:46.490Z,100320.97
2023-07-24T14:02:43.150Z,100311.27
2023-07-24T14:06:00.886Z,100308.63
2023-07-24T14:12:03.396Z,100301.77
2023-07-24T14:15:16.886Z,100304.02
2023-07-24T14:21:44.725Z,100286.75
2023-07-24T14:24:29.365Z,100277.95
2023-07-24T14:27:41.146Z,100275.88
2023-07-24T14:34:25.524Z,100275.64
2023-07-24T14:37:16.990Z,100273.45
2023-07-24T14:40:29.051Z,100266.89
2023-07-24T14:43:34.538Z,100260.45
2023-07-24T14:47:01.227Z,100258.70
2023-07-24T14:50:33.805Z,100259.36
2023-07-24T14:54:02.323Z,100256.95
2023-07-24T14:57:33.274Z,100253.90
2023-07-24T15:01:04.354Z,100248.11
2023-07-24T15:07:46.753Z,100253.13
2023-07-24T15:10:47.501Z,100250.45
